Time;durP1;ratioP1;P1;durP2;ratioP2;P2;SDS_P1;SDS_P2;PMS_P1;PMS_P2;Temp;Humidity;BMP_temperature;BMP_pressure;BME280_temperature;BME280_humidity;BME280_pressure;Samples;Min_cycle;Max_cycle;Signal;HPM_P1;HPM_P2
2021/03/27 00:01:53;;;;;;;5.83;5.33;;;8.60;99.90;;;;;;5014253;28;20196;-64
2021/03/27 00:05:09;;;;;;;6.60;6.00;;;8.40;99.90;;;;;;5014340;28;20290;-64
2021/03/27 00:08:06;;;;;;;5.53;4.00;;;8.30;99.90;;;;;;5013104;28;20601;-64
2021/03/27 00:10:31;;;;;;;3.27;2.97;;;8.20;99.90;;;;;;4994434;28;20201;-64
2021/03/27 00:13:18;;;;;;;2.93;2.47;;;8.10;99.90;;;;;;5012768;28;20176;-65
2021/03/27 00:16:19;;;;;;;5.60;3.50;;;8.00;99.90;;;;;;5014107;28;20183;-64
2021/03/27 00:19:00;;;;;;;2.77;2.57;;;7.90;99.90;;;;;;5014376;28;20180;-65
2021/03/27 00:21:35;;;;;;;2.63;2.43;;;7.70;99.90;;;;;;5013606;28;20204;-65
2021/03/27 00:24:52;;;;;;;2.70;2.03;;;7.60;99.90;;;;;;5014223;28;20400;-64
2021/03/27 00:27:24;;;;;;;2.50;2.27;;;7.40;99.90;;;;;;5013684;28;20244;-65
2021/03/27 00:29:55;;;;;;;3.17;2.20;;;7.30;99.90;;;;;;5013769;28;20585;-64
2021/03/27 00:32:54;;;;;;;2.60;2.03;;;7.20;99.90;;;;;;5013780;28;20179;-65
2021/03/27 00:35:37;;;;;;;2.27;2.13;;;7.10;99.90;;;;;;5001934;28;20196;-65
2021/03/27 00:38:08;;;;;;;2.23;2.10;;;7.00;99.90;;;;;;5013839;28;20172;-65
2021/03/27 00:40:41;;;;;;;2.00;1.90;;;6.90;99.90;;;;;;5013345;28;20188;-65
2021/03/27 00:43:28;;;;;;;2.67;2.23;;;6.90;99.90;;;;;;5013633;28;20208;-65
2021/03/27 00:45:57;;;;;;;3.83;2.07;;;6.80;99.90;;;;;;4994220;28;20818;-65
2021/03/27 00:48:31;;;;;;;2.23;2.03;;;6.70;99.90;;;;;;4995670;28;20207;-64
2021/03/27 00:51:00;;;;;;;2.50;2.30;;;6.70;99.90;;;;;;5013209;28;20273;-65
2021/03/27 00:53:34;;;;;;;2.87;2.17;;;6.60;99.90;;;;;;5013529;28;20547;-65
2021/03/27 00:56:19;;;;;;;2.97;2.77;;;6.60;99.90;;;;;;5013643;28;20202;-65
2021/03/27 00:59:06;;;;;;;2.80;2.43;;;6.60;99.90;;;;;;5013344;28;20184;-65
2021/03/27 01:01:40;;;;;;;2.77;2.50;;;6.50;99.90;;;;;;5013199;28;20200;-65
2021/03/27 01:04:10;;;;;;;2.37;2.27;;;6.50;99.90;;;;;;5012898;28;20204;-65
2021/03/27 01:06:41;;;;;;;2.37;2.17;;;6.50;99.90;;;;;;5012563;28;20256;-65
2021/03/27 01:09:11;;;;;;;3.27;2.90;;;6.50;99.90;;;;;;5012959;28;20588;-64
2021/03/27 01:11:44;;;;;;;3.03;2.80;;;6.40;99.90;;;;;;5013021;28;20772;-64
2021/03/27 01:14:21;;;;;;;3.10;2.90;;;6.40;99.90;;;;;;5013203;28;20191;-64
2021/03/27 01:16:53;;;;;;;3.97;2.77;;;6.40;99.90;;;;;;5013322;28;20179;-65
2021/03/27 01:19:28;;;;;;;5.20;3.30;;;6.30;99.90;;;;;;5012907;28;20190;-64
2021/03/27 01:21:56;;;;;;;3.63;2.90;;;6.30;99.90;;;;;;5012707;28;20537;-65
2021/03/27 01:24:26;;;;;;;3.70;2.97;;;6.30;99.90;;;;;;5012777;28;20273;-64
2021/03/27 01:26:59;;;;;;;3.43;1.83;;;6.30;99.90;;;;;;5012857;28;20175;-64
2021/03/27 01:29:43;;;;;;;2.80;2.60;;;6.20;99.90;;;;;;5012754;28;20168;-65
2021/03/27 01:32:37;;;;;;;2.53;2.13;;;6.10;99.90;;;;;;5012756;28;20203;-65
2021/03/27 01:35:27;;;;;;;2.20;2.00;;;6.10;99.90;;;;;;4993086;28;20252;-65
2021/03/27 01:38:19;;;;;;;2.57;2.20;;;6.10;99.90;;;;;;4993131;28;20201;-65
2021/03/27 01:41:20;;;;;;;4.43;2.43;;;6.10;99.90;;;;;;4997371;28;20192;-65
2021/03/27 01:44:07;;;;;;;2.70;2.37;;;6.10;99.90;;;;;;5010302;28;20266;-65
2021/03/27 01:47:00;;;;;;;1.60;1.50;;;6.00;99.90;;;;;;5012377;28;20645;-65
2021/03/27 01:49:52;;;;;;;2.37;1.63;;;6.00;99.90;;;;;;5012559;28;20168;-65
2021/03/27 01:52:34;;;;;;;3.20;2.67;;;5.90;99.90;;;;;;5012428;28;20176;-65
2021/03/27 01:55:09;;;;;;;3.13;2.40;;;5.90;99.90;;;;;;5012690;28;20183;-65
2021/03/27 01:57:38;;;;;;;7.43;2.97;;;5.90;99.90;;;;;;5012332;28;20519;-65
2021/03/27 02:00:10;;;;;;;5.73;2.77;;;5.90;99.90;;;;;;5011900;28;20276;-65
2021/03/27 02:02:42;;;;;;;4.13;3.27;;;5.80;99.90;;;;;;5012072;28;20669;-65
2021/03/27 02:05:47;;;;;;;9.33;3.80;;;5.90;99.90;;;;;;5011787;28;20171;-65
2021/03/27 02:08:37;;;;;;;6.73;4.63;;;5.90;99.90;;;;;;5011702;28;20184;-64
2021/03/27 02:11:26;;;;;;;6.70;3.57;;;5.90;99.90;;;;;;5011791;28;20267;-65
2021/03/27 02:14:14;;;;;;;5.43;3.60;;;5.90;99.90;;;;;;5005954;28;20262;-65
2021/03/27 02:16:48;;;;;;;5.80;2.87;;;5.90;99.90;;;;;;5011897;28;20180;-65
2021/03/27 02:19:32;;;;;;;6.37;3.83;;;5.90;99.90;;;;;;5011656;28;20179;-65
2021/03/27 02:22:13;;;;;;;7.80;4.33;;;5.90;99.90;;;;;;5011794;28;20207;-64
2021/03/27 02:24:56;;;;;;;6.50;3.87;;;5.90;99.90;;;;;;5011972;28;20642;-64
2021/03/27 02:27:42;;;;;;;6.47;3.50;;;5.90;99.90;;;;;;5011841;28;20176;-65
2021/03/27 02:30:08;;;;;;;6.60;3.20;;;5.90;99.90;;;;;;5011568;28;20192;-64
2021/03/27 02:33:04;;;;;;;8.23;3.30;;;5.90;99.90;;;;;;5011787;28;20172;-65
2021/03/27 02:35:50;;;;;;;5.47;3.27;;;6.00;99.90;;;;;;5011895;28;20168;-64
2021/03/27 02:38:29;;;;;;;5.17;2.80;;;5.90;99.90;;;;;;5011861;28;20207;-64
2021/03/27 02:41:22;;;;;;;4.53;3.00;;;5.90;99.90;;;;;;5011444;28;20192;-65
2021/03/27 02:44:15;;;;;;;5.43;3.17;;;5.90;99.90;;;;;;5011708;28;20207;-65
2021/03/27 02:46:45;;;;;;;5.07;3.47;;;5.90;99.90;;;;;;5008422;28;20195;-65
2021/03/27 02:49:38;;;;;;;5.57;3.87;;;5.90;99.90;;;;;;5011670;28;20340;-65
2021/03/27 02:52:24;;;;;;;5.50;3.17;;;5.90;99.90;;;;;;5011237;28;20242;-65
2021/03/27 02:54:59;;;;;;;4.30;3.70;;;5.90;99.90;;;;;;5011785;28;20216;-64
2021/03/27 02:57:31;;;;;;;4.50;3.07;;;5.90;99.90;;;;;;5011476;28;20179;-64
2021/03/27 03:00:14;;;;;;;7.60;3.67;;;5.90;99.90;;;;;;5011217;28;20176;-65
2021/03/27 03:02:48;;;;;;;4.13;3.53;;;5.90;99.90;;;;;;5042660;22;20219;-67
2021/03/27 03:05:33;;;;;;;4.00;2.97;;;6.00;99.90;;;;;;5051026;28;20186;-65
2021/03/27 03:08:18;;;;;;;7.50;3.70;;;6.00;99.90;;;;;;5051077;28;20179;-65
2021/03/27 03:10:53;;;;;;;6.23;4.40;;;6.00;99.90;;;;;;5051042;28;20186;-64
2021/03/27 03:13:41;;;;;;;7.50;4.63;;;6.00;99.90;;;;;;5050828;28;20570;-67
2021/03/27 03:16:10;;;;;;;8.20;4.73;;;6.00;99.90;;;;;;5040269;28;20185;-67
2021/03/27 03:18:36;;;;;;;10.03;4.30;;;5.90;99.90;;;;;;5030054;28;20206;-66
2021/03/27 03:21:26;;;;;;;7.03;3.83;;;5.90;99.90;;;;;;5039818;28;20171;-67
2021/03/27 03:23:59;;;;;;;8.13;4.30;;;5.80;99.90;;;;;;5050966;28;20301;-67
2021/03/27 03:26:59;;;;;;;12.03;4.30;;;5.80;99.90;;;;;;5049683;28;20167;-67
2021/03/27 03:29:50;;;;;;;9.93;3.87;;;5.80;99.90;;;;;;5040454;28;20187;-67
2021/03/27 03:32:21;;;;;;;9.47;4.17;;;5.90;99.90;;;;;;5034856;28;20172;-67
2021/03/27 03:34:46;;;;;;;8.90;4.37;;;6.00;99.90;;;;;;5050412;28;20178;-66
2021/03/27 03:37:34;;;;;;;6.77;5.00;;;6.10;99.90;;;;;;5054633;28;20185;-66
2021/03/27 03:40:39;;;;;;;10.13;4.73;;;6.20;99.90;;;;;;5037305;28;20270;-66
2021/03/27 03:43:28;;;;;;;6.83;4.10;;;6.20;99.90;;;;;;5035585;28;20217;-67
2021/03/27 03:46:07;;;;;;;6.90;4.03;;;6.20;99.90;;;;;;5054710;28;20167;-66
2021/03/27 03:48:42;;;;;;;11.77;6.17;;;6.20;99.90;;;;;;5051203;28;20172;-66
2021/03/27 03:51:12;;;;;;;6.10;4.73;;;6.10;99.90;;;;;;5034834;28;20671;-67
2021/03/27 03:53:52;;;;;;;6.70;4.07;;;6.10;99.90;;;;;;5037551;28;20243;-66
2021/03/27 03:56:31;;;;;;;7.37;4.63;;;6.10;99.90;;;;;;5051502;28;20175;-66
2021/03/27 03:59:22;;;;;;;7.33;4.53;;;6.10;99.90;;;;;;5034464;28;20653;-66
2021/03/27 04:02:26;;;;;;;9.47;4.13;;;6.20;99.90;;;;;;5037169;28;20209;-67
2021/03/27 04:04:59;;;;;;;6.27;4.10;;;6.20;99.90;;;;;;5049152;28;20222;-66
2021/03/27 04:07:39;;;;;;;6.90;5.27;;;6.20;99.90;;;;;;5043382;28;20540;-67
2021/03/27 04:10:14;;;;;;;12.40;4.40;;;6.20;99.90;;;;;;5033924;28;20187;-67
2021/03/27 04:12:55;;;;;;;10.43;4.80;;;6.10;99.90;;;;;;5045988;28;20230;-67
2021/03/27 04:15:41;;;;;;;8.20;5.03;;;6.10;99.90;;;;;;5053118;28;20175;-67
2021/03/27 04:18:32;;;;;;;7.13;4.00;;;6.10;99.90;;;;;;5038793;28;20291;-67
2021/03/27 04:21:05;;;;;;;8.00;3.93;;;6.00;99.90;;;;;;5033730;28;20222;-67
2021/03/27 04:24:04;;;;;;;11.70;4.87;;;5.90;99.90;;;;;;5051228;28;20594;-67
2021/03/27 04:26:32;;;;;;;9.10;4.23;;;5.90;99.90;;;;;;5053536;28;20175;-67
2021/03/27 04:29:10;;;;;;;10.60;3.17;;;5.80;99.90;;;;;;5032718;28;20179;-66
2021/03/27 04:31:50;;;;;;;8.90;2.60;;;5.70;99.90;;;;;;5033782;28;20530;-65
2021/03/27 04:34:42;;;;;;;4.67;2.50;;;5.70;99.90;;;;;;5049418;28;20198;-67
2021/03/27 04:37:31;;;;;;;7.50;2.90;;;5.70;99.90;;;;;;5037650;28;20179;-67
2021/03/27 04:40:02;;;;;;;4.60;2.70;;;5.70;99.90;;;;;;5053127;28;20183;-66
2021/03/27 04:42:52;;;;;;;10.20;2.80;;;5.60;99.90;;;;;;5036407;28;20745;-67
2021/03/27 04:45:26;;;;;;;3.70;2.40;;;5.60;99.90;;;;;;5040107;28;20656;-66
2021/03/27 04:48:26;;;;;;;6.43;1.90;;;5.60;99.90;;;;;;5053497;28;20174;-67
2021/03/27 04:50:58;;;;;;;6.73;2.37;;;5.60;99.90;;;;;;5041918;28;20714;-66
2021/03/27 04:53:47;;;;;;;7.97;2.70;;;5.50;99.90;;;;;;5033318;28;20277;-67
2021/03/27 04:56:19;;;;;;;15.60;2.63;;;5.50;99.90;;;;;;5046322;28;20256;-67
2021/03/27 04:59:07;;;;;;;6.53;3.17;;;5.50;99.90;;;;;;5052203;28;20175;-67
2021/03/27 05:02:03;;;;;;;11.60;2.60;;;5.50;99.90;;;;;;5037481;28;20533;-66
2021/03/27 05:04:58;;;;;;;7.60;2.87;;;5.50;99.90;;;;;;5033152;28;20214;-66
2021/03/27 05:07:43;;;;;;;6.23;2.50;;;5.50;99.90;;;;;;5013197;28;20180;-66
2021/03/27 05:10:26;;;;;;;8.23;4.17;;;5.50;99.90;;;;;;5032507;28;20234;-66
2021/03/27 05:12:57;;;;;;;4.87;2.30;;;5.60;99.90;;;;;;5050694;28;20186;-66
2021/03/27 05:15:36;;;;;;;6.60;2.73;;;5.70;99.90;;;;;;5032845;28;20159;-67
2021/03/27 05:18:17;;;;;;;6.83;3.57;;;5.80;99.90;;;;;;5035243;28;20176;-66
2021/03/27 05:20:44;;;;;;;5.30;2.70;;;5.80;99.90;;;;;;5052658;28;20536;-66
2021/03/27 05:23:45;;;;;;;4.63;2.37;;;5.80;99.90;;;;;;5049519;28;20249;-66
2021/03/27 05:26:42;;;;;;;6.03;3.03;;;5.70;99.90;;;;;;5010591;28;20219;-67
2021/03/27 05:29:32;;;;;;;8.40;2.73;;;5.60;99.90;;;;;;5039769;28;20589;-67
2021/03/27 05:32:22;;;;;;;10.77;3.60;;;5.60;99.90;;;;;;5052345;28;20244;-67
2021/03/27 05:34:52;;;;;;;7.43;3.53;;;5.60;99.90;;;;;;5037518;28;20604;-67
2021/03/27 05:37:31;;;;;;;10.03;3.60;;;5.60;99.90;;;;;;5032442;28;20708;-66
2021/03/27 05:40:03;;;;;;;8.00;3.13;;;5.60;99.90;;;;;;5035349;28;20179;-67
2021/03/27 05:42:52;;;;;;;7.13;3.67;;;5.70;99.90;;;;;;5046139;28;20206;-65
2021/03/27 05:45:27;;;;;;;6.40;3.33;;;5.70;99.90;;;;;;5052308;28;20331;-64
2021/03/27 05:48:30;;;;;;;5.97;3.97;;;5.60;99.90;;;;;;5035683;28;20268;-66
2021/03/27 05:51:40;;;;;;;10.63;4.63;;;5.60;99.90;;;;;;5022859;28;20562;-67
2021/03/27 05:54:38;;;;;;;11.20;3.97;;;5.70;99.90;;;;;;5011643;28;20220;-67
2021/03/27 05:57:40;;;;;;;9.07;4.00;;;5.70;99.90;;;;;;5009605;28;20608;-67
2021/03/27 06:00:31;;;;;;;8.97;4.67;;;5.80;99.90;;;;;;5051739;28;20236;-67
2021/03/27 06:03:08;;;;;;;12.53;4.90;;;5.80;99.90;;;;;;5036714;28;20215;-67
2021/03/27 06:05:49;;;;;;;10.30;4.60;;;5.90;99.90;;;;;;5032135;28;20254;-67
2021/03/27 06:08:18;;;;;;;11.90;4.10;;;5.90;99.90;;;;;;5048629;28;20648;-67
2021/03/27 06:10:58;;;;;;;3.97;2.97;;;6.00;99.90;;;;;;5037067;28;20183;-67
2021/03/27 06:13:44;;;;;;;4.57;3.40;;;6.10;99.90;;;;;;5031773;28;20199;-66
2021/03/27 06:16:28;;;;;;;10.47;3.53;;;6.20;99.90;;;;;;5049306;28;20187;-67
2021/03/27 06:19:27;;;;;;;8.43;3.43;;;6.30;99.90;;;;;;5051863;28;20179;-64
2021/03/27 06:22:34;;;;;;;11.23;2.57;;;6.40;99.90;;;;;;5047167;28;20221;-65
2021/03/27 06:25:32;;;;;;;7.30;2.83;;;6.50;99.90;;;;;;5044757;28;20292;-66
2021/03/27 06:28:36;;;;;;;7.37;3.27;;;6.60;99.90;;;;;;5031888;28;20180;-65
2021/03/27 06:31:46;;;;;;;14.53;3.73;;;6.60;99.90;;;;;;5044242;28;20182;-66
2021/03/27 06:34:39;;;;;;;8.07;3.37;;;6.50;99.90;;;;;;5037229;28;20214;-67
2021/03/27 06:37:10;;;;;;;11.73;3.30;;;6.40;99.90;;;;;;5043652;28;20556;-65
2021/03/27 06:39:57;;;;;;;13.47;3.57;;;6.40;99.90;;;;;;5015005;28;20322;-65
2021/03/27 06:42:27;;;;;;;6.23;3.03;;;6.30;99.90;;;;;;5051509;28;20607;-65
2021/03/27 06:45:14;;;;;;;8.67;3.07;;;6.20;99.90;;;;;;5048173;28;20210;-65
2021/03/27 06:47:58;;;;;;;5.33;2.60;;;6.00;99.90;;;;;;5031491;28;20179;-64
2021/03/27 06:50:42;;;;;;;3.37;1.90;;;5.70;99.90;;;;;;5037262;28;20178;-65
2021/03/27 06:53:12;;;;;;;3.53;1.90;;;5.40;99.90;;;;;;5051187;28;20548;-64
2021/03/27 06:55:59;;;;;;;3.17;2.50;;;5.10;99.90;;;;;;5043400;28;20179;-64
2021/03/27 06:58:27;;;;;;;4.63;2.90;;;5.00;99.90;;;;;;5031333;28;20176;-64
2021/03/27 07:01:12;;;;;;;2.63;2.07;;;5.00;99.90;;;;;;5039553;28;20563;-65
2021/03/27 07:03:47;;;;;;;2.27;1.83;;;4.90;99.90;;;;;;5053909;28;20212;-65
2021/03/27 07:06:41;;;;;;;5.80;1.93;;;4.70;99.90;;;;;;5035190;28;20651;-65
2021/03/27 07:09:15;;;;;;;2.03;1.90;;;4.70;99.90;;;;;;5037196;28;20168;-65
2021/03/27 07:11:41;;;;;;;2.93;1.70;;;4.60;99.90;;;;;;5054753;28;20178;-65
2021/03/27 07:14:31;;;;;;;2.40;1.80;;;4.60;99.90;;;;;;5053232;28;20574;-64
2021/03/27 07:17:15;;;;;;;3.70;1.73;;;4.60;99.90;;;;;;5035127;28;20189;-64
2021/03/27 07:19:57;;;;;;;3.70;1.77;;;4.60;99.90;;;;;;5039925;28;20186;-64
2021/03/27 07:23:00;;;;;;;4.23;2.17;;;4.60;99.90;;;;;;5054950;28;20197;-64
2021/03/27 07:25:46;;;;;;;1.90;1.60;;;4.60;99.90;;;;;;5043586;28;20183;-64
2021/03/27 07:28:41;;;;;;;1.87;1.63;;;4.70;99.90;;;;;;5034966;28;20538;-64
2021/03/27 07:31:32;;;;;;;5.93;2.03;;;4.60;99.90;;;;;;5050386;28;20178;-64
2021/03/27 07:34:16;;;;;;;4.80;2.57;;;4.70;99.90;;;;;;5035833;28;20282;-64
2021/03/27 07:37:19;;;;;;;8.20;2.47;;;4.80;99.90;;;;;;5034972;28;20168;-64
2021/03/27 07:40:05;;;;;;;5.17;2.33;;;5.10;99.90;;;;;;5052654;28;20182;-64
2021/03/27 07:42:42;;;;;;;6.03;2.30;;;5.40;99.90;;;;;;5048280;28;20222;-65
2021/03/27 07:45:24;;;;;;;4.93;2.03;;;5.80;99.90;;;;;;5032963;28;20588;-64
2021/03/27 07:48:00;;;;;;;3.07;2.37;;;6.30;99.90;;;;;;5041283;28;20183;-64
2021/03/27 07:50:51;;;;;;;5.50;2.20;;;6.60;99.90;;;;;;5052873;28;20170;-64
2021/03/27 07:53:53;;;;;;;5.77;3.10;;;6.70;99.90;;;;;;5044190;28;20195;-64
2021/03/27 07:56:24;;;;;;;4.53;2.47;;;6.80;99.90;;;;;;5034407;28;20182;-64
2021/03/27 07:59:05;;;;;;;5.10;2.53;;;6.80;99.90;;;;;;5035980;28;20195;-64
2021/03/27 08:01:58;;;;;;;2.60;1.87;;;6.50;99.90;;;;;;5033982;28;20206;-64
2021/03/27 08:04:35;;;;;;;8.33;2.50;;;6.30;99.90;;;;;;5051660;28;20207;-64
2021/03/27 08:07:08;;;;;;;5.63;3.00;;;6.20;99.90;;;;;;5054024;28;20202;-64
2021/03/27 08:10:00;;;;;;;6.07;2.90;;;6.40;99.90;;;;;;5052257;28;20208;-64
2021/03/27 08:13:05;;;;;;;7.37;2.60;;;6.80;99.90;;;;;;5053596;28;20177;-64
2021/03/27 08:15:48;;;;;;;5.37;2.20;;;7.30;99.90;;;;;;5033732;28;20198;-64
2021/03/27 08:18:53;;;;;;;4.27;2.20;;;7.80;99.90;;;;;;5035294;28;20645;-64
2021/03/27 08:21:46;;;;;;;6.73;2.20;;;8.00;99.90;;;;;;5033685;28;20227;-64
2021/03/27 08:25:09;;;;;;;8.63;2.43;;;8.20;99.90;;;;;;5045724;28;20234;-64
2021/03/27 08:28:00;;;;;;;4.93;2.33;;;8.30;99.90;;;;;;4995915;28;20235;-64
2021/03/27 08:30:45;;;;;;;7.73;3.13;;;8.20;99.90;;;;;;4992266;28;20172;-65
2021/03/27 08:33:44;;;;;;;5.30;2.67;;;8.40;99.90;;;;;;5050553;28;20225;-64
2021/03/27 08:36:58;;;;;;;4.87;2.40;;;8.40;99.90;;;;;;5050992;28;20175;-65
2021/03/27 08:39:54;;;;;;;6.17;2.30;;;8.40;99.90;;;;;;5035692;28;20202;-65
2021/03/27 08:42:25;;;;;;;8.63;2.50;;;8.20;99.90;;;;;;5053619;28;20224;-64
2021/03/27 08:45:09;;;;;;;6.07;2.43;;;8.40;99.90;;;;;;5047405;28;20567;-65
2021/03/27 08:48:05;;;;;;;8.57;2.53;;;8.60;99.90;;;;;;5033477;28;20171;-64
2021/03/27 08:51:02;;;;;;;10.00;2.60;;;9.00;99.90;;;;;;5043442;28;20273;-65
2021/03/27 08:53:31;;;;;;;7.20;2.10;;;9.40;99.90;;;;;;5053253;28;20230;-65
2021/03/27 08:56:28;;;;;;;5.20;2.07;;;9.90;99.90;;;;;;5048895;28;20190;-65
2021/03/27 08:59:12;;;;;;;5.70;2.30;;;10.10;99.90;;;;;;5051586;28;20170;-65
2021/03/27 09:02:15;;;;;;;7.33;2.27;;;10.30;99.90;;;;;;5011731;28;20182;-65
2021/03/27 09:05:02;;;;;;;7.37;2.80;;;9.90;99.90;;;;;;5070626;23;20573;-66
2021/03/27 09:07:30;;;;;;;5.07;2.37;;;9.60;99.90;;;;;;5053010;28;20552;-65
2021/03/27 09:10:33;;;;;;;7.93;2.80;;;9.30;99.90;;;;;;5051284;28;20183;-65
2021/03/27 09:13:02;;;;;;;7.73;2.80;;;9.70;99.90;;;;;;5047723;28;20195;-65
2021/03/27 09:16:02;;;;;;;9.63;2.77;;;10.10;99.90;;;;;;5032866;28;20172;-66
2021/03/27 09:18:46;;;;;;;4.90;2.23;;;10.30;99.90;;;;;;5024696;28;20254;-66
2021/03/27 09:21:23;;;;;;;6.97;3.03;;;10.60;99.90;;;;;;5011349;28;20180;-65
2021/03/27 09:24:14;;;;;;;8.23;2.57;;;10.70;99.90;;;;;;5027221;28;20203;-65
2021/03/27 09:27:23;;;;;;;9.67;2.70;;;10.10;99.90;;;;;;5031782;28;20164;-64
2021/03/27 09:29:57;;;;;;;7.37;2.50;;;10.10;99.90;;;;;;4995588;28;20199;-65
2021/03/27 09:32:48;;;;;;;3.63;2.13;;;10.30;99.90;;;;;;5014609;28;20172;-66
2021/03/27 09:35:22;;;;;;;6.13;3.30;;;10.80;99.90;;;;;;5032623;28;20168;-65
2021/03/27 09:38:22;;;;;;;10.50;2.80;;;11.70;99.90;;;;;;5033944;28;20168;-61
2021/03/27 09:41:09;;;;;;;4.67;2.00;;;12.50;99.90;;;;;;5031297;28;20657;-65
2021/03/27 09:43:49;;;;;;;9.90;2.43;;;13.00;99.90;;;;;;5031347;28;20242;-63
2021/03/27 09:46:36;;;;;;;6.33;2.70;;;12.60;99.90;;;;;;5031642;28;20301;-63
2021/03/27 09:49:14;;;;;;;4.97;2.70;;;12.10;99.90;;;;;;5018275;28;20551;-67
2021/03/27 09:52:10;;;;;;;9.33;3.57;;;11.50;99.90;;;;;;5023291;28;20229;-65
2021/03/27 09:55:02;;;;;;;9.30;3.60;;;10.90;99.90;;;;;;5032631;28;20630;-65
2021/03/27 09:57:46;;;;;;;11.97;3.50;;;10.70;99.90;;;;;;5013988;28;20196;-64
2021/03/27 10:00:40;;;;;;;6.20;2.83;;;9.70;99.90;;;;;;5012521;28;20557;-65
2021/03/27 10:03:24;;;;;;;2.80;1.97;;;8.90;99.90;;;;;;5012283;28;20218;-65
2021/03/27 10:05:59;;;;;;;5.57;2.50;;;7.90;99.90;;;;;;5015882;28;20209;-67
2021/03/27 10:08:34;;;;;;;8.63;2.77;;;7.30;99.90;;;;;;5032319;28;20167;-67
2021/03/27 10:11:02;;;;;;;8.87;3.30;;;7.00;99.90;;;;;;5026902;28;20172;-67
2021/03/27 10:13:52;;;;;;;6.70;2.30;;;6.90;99.90;;;;;;5011299;28;20670;-65
2021/03/27 10:16:58;;;;;;;7.90;2.23;;;7.00;99.90;;;;;;5017605;28;20195;-64
2021/03/27 10:19:34;;;;;;;10.33;3.40;;;7.20;99.90;;;;;;5032196;28;20171;-64
2021/03/27 10:22:21;;;;;;;10.70;2.97;;;7.10;99.90;;;;;;5023242;28;20261;-64
2021/03/27 10:25:00;;;;;;;9.10;2.70;;;7.20;99.90;;;;;;5012620;28;20286;-65
2021/03/27 10:28:03;;;;;;;7.03;2.47;;;7.70;99.90;;;;;;5026754;28;20178;-65
2021/03/27 10:30:53;;;;;;;6.53;2.50;;;8.40;99.90;;;;;;5032744;28;20544;-65
2021/03/27 10:33:38;;;;;;;3.40;2.33;;;8.90;99.90;;;;;;5012904;28;20286;-65
2021/03/27 10:36:31;;;;;;;7.23;4.13;;;9.20;99.90;;;;;;5014408;28;20194;-65
2021/03/27 10:39:38;;;;;;;7.10;2.43;;;9.30;99.90;;;;;;5030715;28;20649;-67
2021/03/27 10:42:35;;;;;;;7.00;2.40;;;9.60;99.90;;;;;;4992318;28;20195;-65
2021/03/27 10:45:19;;;;;;;7.90;2.50;;;9.60;99.90;;;;;;5013073;28;20227;-64
2021/03/27 10:47:50;;;;;;;8.60;2.37;;;9.50;99.90;;;;;;5011899;28;20199;-64
2021/03/27 10:50:22;;;;;;;5.37;2.00;;;9.40;99.90;;;;;;5024226;28;20175;-65
2021/03/27 10:53:03;;;;;;;6.57;2.73;;;9.70;99.90;;;;;;5031726;28;20178;-67
2021/03/27 10:55:44;;;;;;;3.37;2.33;;;9.90;99.90;;;;;;5017995;28;20180;-64
2021/03/27 10:58:18;;;;;;;3.20;1.80;;;10.30;99.90;;;;;;5013331;28;20184;-67
2021/03/27 11:00:53;;;;;;;5.60;2.30;;;11.00;99.90;;;;;;5011724;28;20166;-64
2021/03/27 11:03:55;;;;;;;8.57;2.70;;;10.90;99.90;;;;;;5012655;28;20215;-67
2021/03/27 11:06:49;;;;;;;6.33;2.67;;;10.50;99.90;;;;;;5012037;28;20190;-66
2021/03/27 11:09:34;;;;;;;2.37;1.80;;;10.50;99.90;;;;;;5012012;28;20251;-67
2021/03/27 11:12:37;;;;;;;4.67;1.73;;;10.80;99.90;;;;;;5018920;28;20179;-65
2021/03/27 11:15:27;;;;;;;3.10;1.57;;;11.50;99.90;;;;;;5031234;28;20175;-63
2021/03/27 11:18:23;;;;;;;3.63;1.93;;;11.90;99.90;;;;;;5016920;28;20192;-64
2021/03/27 11:21:00;;;;;;;3.90;2.27;;;11.80;99.90;;;;;;5011226;28;20271;-63
2021/03/27 11:23:46;;;;;;;5.27;3.27;;;11.80;99.90;;;;;;5029329;28;20688;-64
2021/03/27 11:26:36;;;;;;;10.33;2.37;;;11.50;99.90;;;;;;5029849;28;20171;-64
2021/03/27 11:29:08;;;;;;;2.67;1.70;;;11.70;99.90;;;;;;5011204;28;20203;-64
2021/03/27 11:31:50;;;;;;;4.00;1.87;;;12.10;99.90;;;;;;5029722;28;20179;-64
2021/03/27 11:34:51;;;;;;;4.03;1.97;;;12.10;99.90;;;;;;5030659;28;20191;-65
2021/03/27 11:37:26;;;;;;;6.90;2.53;;;12.20;99.90;;;;;;4976365;28;20207;-65
2021/03/27 11:40:08;;;;;;;4.10;2.23;;;12.60;99.90;;;;;;5014730;28;20663;-65
2021/03/27 11:42:57;;;;;;;5.00;2.13;;;12.80;99.90;;;;;;5030954;28;20190;-65
2021/03/27 11:45:37;;;;;;;2.97;1.50;;;13.10;99.90;;;;;;5023090;28;20184;-65
2021/03/27 11:48:13;;;;;;;8.27;1.97;;;13.30;99.90;;;;;;5011016;28;20195;-65
2021/03/27 11:50:47;;;;;;;4.47;2.00;;;13.50;99.90;;;;;;5021539;28;20183;-64
2021/03/27 11:53:32;;;;;;;5.90;2.60;;;13.70;99.90;;;;;;5027620;28;20294;-65
2021/03/27 11:56:12;;;;;;;8.03;2.07;;;13.40;99.90;;;;;;5014548;28;20172;-64
2021/03/27 12:02:19;;;;;;;5.50;2.20;;;12.70;99.90;;;;;;5014043;28;20188;-64
2021/03/27 12:04:44;;;;;;;7.70;2.87;;;12.30;99.90;;;;;;5009626;28;20302;-64
2021/03/27 12:07:31;;;;;;;5.17;2.20;;;12.50;99.90;;;;;;5013484;28;20180;-63
2021/03/27 12:10:13;;;;;;;4.60;2.20;;;12.60;99.90;;;;;;5012782;28;20214;-64
2021/03/27 12:13:09;;;;;;;4.63;1.60;;;13.00;99.90;;;;;;5033085;28;20178;-65
2021/03/27 12:15:42;;;;;;;6.27;2.27;;;13.20;99.90;;;;;;5014364;28;20177;-65
2021/03/27 12:18:45;;;;;;;7.93;2.40;;;13.00;99.90;;;;;;5017346;28;20175;-64
2021/03/27 12:21:27;;;;;;;4.27;2.50;;;12.10;99.90;;;;;;5033963;28;20326;-65
2021/03/27 12:24:04;;;;;;;3.43;2.50;;;11.60;99.90;;;;;;5023685;28;20261;-65
2021/03/27 12:26:45;;;;;;;4.33;2.27;;;11.60;99.90;;;;;;5014380;28;20172;-65
2021/03/27 12:29:15;;;;;;;5.27;2.13;;;11.80;99.90;;;;;;5015301;28;20221;-66
2021/03/27 12:32:27;;;;;;;5.97;2.20;;;12.40;99.90;;;;;;5032487;28;20572;-66
2021/03/27 12:35:28;;;;;;;6.03;1.90;;;13.10;99.90;;;;;;5028005;28;20254;-65
2021/03/27 12:38:05;;;;;;;9.00;2.17;;;13.30;99.90;;;;;;5018790;28;20188;-65
2021/03/27 12:41:04;;;;;;;3.33;2.13;;;13.30;99.90;;;;;;5020352;28;20183;-64
2021/03/27 12:43:32;;;;;;;3.97;1.70;;;13.20;99.90;;;;;;5028884;28;20316;-65
2021/03/27 12:46:06;;;;;;;3.40;1.90;;;13.30;99.90;;;;;;5027027;28;20183;-66
2021/03/27 12:48:53;;;;;;;2.53;1.60;;;13.20;99.90;;;;;;5031395;28;20241;-66
2021/03/27 12:51:29;;;;;;;6.37;2.30;;;13.20;99.90;;;;;;5019249;28;20182;-65
2021/03/27 12:54:00;;;;;;;3.60;2.00;;;13.20;99.90;;;;;;5033205;28;20191;-65
2021/03/27 12:57:02;;;;;;;2.83;1.70;;;12.90;99.90;;;;;;5027016;28;20223;-66
2021/03/27 12:59:59;;;;;;;4.73;2.00;;;12.50;99.90;;;;;;5014690;28;20283;-64
2021/03/27 13:03:02;;;;;;;2.33;1.70;;;11.30;99.90;;;;;;4999442;28;20215;-64
2021/03/27 13:05:49;;;;;;;3.03;2.13;;;11.40;99.90;;;;;;5023209;28;20187;-64
2021/03/27 13:08:42;;;;;;;3.90;1.97;;;11.70;99.90;;;;;;5028125;28;20182;-64
2021/03/27 13:11:36;;;;;;;4.90;1.80;;;12.50;99.90;;;;;;5029074;28;20316;-65
2021/03/27 13:14:37;;;;;;;4.67;2.10;;;13.10;99.90;;;;;;4992779;28;20215;-64
2021/03/27 13:17:41;;;;;;;2.47;1.97;;;13.20;99.90;;;;;;5008773;28;20664;-65
2021/03/27 13:20:15;;;;;;;3.93;2.00;;;13.30;99.90;;;;;;5007152;28;20194;-64
2021/03/27 13:22:49;;;;;;;3.13;1.40;;;13.20;99.90;;;;;;5026276;28;20249;-64
2021/03/27 13:25:34;;;;;;;6.33;2.07;;;13.20;99.90;;;;;;5032786;28;20199;-64
2021/03/27 13:28:25;;;;;;;2.57;1.60;;;13.20;99.90;;;;;;5029359;28;20180;-64
2021/03/27 13:31:09;;;;;;;4.33;1.77;;;13.40;99.90;;;;;;4992521;28;20879;-64
2021/03/27 13:33:52;;;;;;;1.43;1.23;;;13.40;99.90;;;;;;5014854;28;20204;-65
2021/03/27 13:36:35;;;;;;;3.63;1.90;;;13.20;99.90;;;;;;5029171;28;20262;-65
2021/03/27 13:39:24;;;;;;;3.23;1.60;;;12.80;99.90;;;;;;5022056;28;20554;-64
2021/03/27 13:42:01;;;;;;;2.00;1.73;;;12.80;99.90;;;;;;5012213;28;20176;-66
2021/03/27 13:44:31;;;;;;;3.63;1.60;;;12.60;99.90;;;;;;5020708;28;20596;-67
2021/03/27 13:47:07;;;;;;;1.40;1.30;;;12.70;99.90;;;;;;5025066;28;20195;-66
2021/03/27 13:49:54;;;;;;;4.60;1.87;;;12.80;99.90;;;;;;5031700;28;20655;-65
2021/03/27 13:52:24;;;;;;;2.30;1.60;;;12.80;99.90;;;;;;5012965;28;20412;-67
2021/03/27 13:55:02;;;;;;;4.67;2.00;;;12.80;99.90;;;;;;5012613;28;20434;-66
2021/03/27 13:57:41;;;;;;;1.80;1.47;;;13.00;99.90;;;;;;5016760;28;20692;-65
2021/03/27 14:00:31;;;;;;;3.27;1.60;;;13.10;99.90;;;;;;5013064;28;20179;-65
2021/03/27 14:03:16;;;;;;;5.33;1.63;;;12.90;99.90;;;;;;5027644;28;20207;-66
2021/03/27 14:05:43;;;;;;;2.47;1.53;;;12.90;99.90;;;;;;5022046;28;20394;-66
2021/03/27 14:08:42;;;;;;;2.30;1.40;;;12.80;99.90;;;;;;5019040;28;20180;-66
2021/03/27 14:11:15;;;;;;;5.20;1.90;;;13.10;99.90;;;;;;4996047;28;20190;-66
2021/03/27 14:14:06;;;;;;;2.57;1.57;;;13.20;99.90;;;;;;5020397;28;20203;-64
2021/03/27 14:16:49;;;;;;;3.73;1.40;;;13.40;99.90;;;;;;5012423;28;20203;-66
2021/03/27 14:19:56;;;;;;;4.00;1.80;;;13.50;99.90;;;;;;5026641;28;20175;-66
2021/03/27 14:22:51;;;;;;;3.70;1.73;;;13.90;99.90;;;;;;5022992;28;20223;-66
2021/03/27 14:25:37;;;;;;;2.67;1.57;;;14.30;99.80;;;;;;5011985;28;20204;-66
2021/03/27 14:28:28;;;;;;;1.67;1.37;;;13.70;98.90;;;;;;5015103;28;20183;-66